Relevés horaires Saint-Mandrier-sur-Mer - Cap Cépet (France)


Relevés horaires à Saint-Mandrier-sur-Mer - Cap Cépet - Jeudi 30 Janv. 2020
Heure UTC1 Température [°C] Vent [km/h] Hum. [%] Pres.4 [hPa] Visi. [Km] Nébu. [octa] Préc.5 [mm] Cond.
2m. Res. Ros. Dir.2 Vit. Moy. Raf.3
23:00 11.2 9.6 9.1 NO 13.0 -- 16.7 87 1019.6(0.0/3h) -- -- -- --
22:00 11.5 10 8.4 NO 13.0 -- 14.8 81 1019.5(0.0/3h) -- -- -- --
21:00 11.4 10.1 8.3 NO 11.1 -- 16.7 81 1019.6(0.3/3h) -- -- -- --
20:00 11.6 10.1 9.7 NO 13.0 -- 16.7 88 1019.5(0.5/3h) -- -- -- --
19:00 11.7 10.5 9.6 NO 11.1 -- 16.7 87 1019.5(0.5/3h) -- -- -- --
18:00 11.8 10.6 9.4 NO 11.1 -- 16.7 85 1019.3(0.2/3h) -- -- -- --
17:00 11.9 10.5 9.1 NO 13.0 -- 16.7 83 1019(-0.1/3h) -- -- -- --
16:00 12.4 11.6 9.6 ONO 9.3 -- 14.8 83 1019(-0.4/3h) -- -- -- --
15:00 13.1 12.2 8.8 NO 11.1 -- 18.5 75 1019(-0.7/3h) 25 5/8 -- --
14:00 14.1 13.6 8.3 NO 9.3 -- 20.4 68 1019(-1.2/3h) -- -- -- --
13:00 13.8 12.6 8.0 NO 14.8 -- 22.2 68 1019.3(-0.9/3h) -- -- -- --
12:00 14.4 13.5 5.7 NO 13.0 -- 20.4 56 1019.7(-0.3/3h) -- -- -- --
11:00 13.3 12.4 3.9 ONO 11.1 -- 18.5 53 1020.3(0.1/3h) -- -- -- --
10:00 12.9 11.7 3.8 ONO 13.0 -- 18.5 54 1020.3(0.7/3h) -- -- -- --
09:00 11.5 9.8 2.0 NO 14.8 -- 18.5 52 1020.2(0.8/3h) -- 5/8 -- --
08:00 11.1 9.3 1.1 NO 14.8 -- 24.1 50 1020.3(1.1/3h) -- -- -- --
07:00 10.6 8.5 1.7 NO 16.7 -- 22.2 54 1019.7(0.7/3h) -- -- -- --
06:00 9.8 7.9 1.7 NO 13.0 -- 18.5 57 1019.5(0.1/3h) 25 0/8 -- --
05:00 9.7 7.8 1.8 NO 13.0 -- 20.4 58 1019.3(0.0/3h) -- -- -- --
04:00 9.4 7.4 2.5 NO 13.0 -- 16.7 62 1019.1(-0.4/3h) -- -- -- --
03:00 9.5 7.8 1.9 NO 11.1 -- 24.1 59 1019.4(-0.7/3h) -- -- -- --
02:00 10.3 7.7 2.1 NO 20.4 -- 27.8 57 1019.2(-0.2/3h) -- -- -- --
01:00 10.1 7.5 2.9 NO 20.4 -- 25.9 61 1019.4(0.3/3h) -- -- -- --
00:00 10.8 8.7 4.0 NO 16.7 -- 27.8 63 1020(0.7/3h) -- -- -- --

1 Coordinated Universal Time. Actuellement il est 15:00 locale et 14:00 UTC.

2 Le vent souffle depuis la direction indiquée vers la direction oposée.

3 Les rafales max. sont disponible 40 min après l'heure du relevé.

4 Pour les stations d'altitude (plus de 600m) le géopotentiel du niveau le plus proche de la pression obligatoire est indiqué.

5 Les stations disposant d'un diffuseur peuvent indiquer "trace". Cela signifie que des précipitations ont touchés le sol mais que la quantité est inférieure à 0.1 mm.

Récapitulatif de la journée
Température [°C] Vent [km/h] Ensoleillement4 [h] Precipitations totale5 [mm] Pression [Hpa]
Min1 Max.2 Moy.3 Max. Min Max.
9.2 15.1 0 27.8 0 h 0 min 0 1019.0 1020.3

1 Température minimale relevée entre 18:00 UTC la veille et 18:00 UTC le jour donné.

2 Température maximale relevée entre 06:00 UTC le jour donné et 06:00 UTC le lendemain.

3 Vent moyen de la journée basé sur les relevés horaires.

4 Ensoleillement en heures relevé entre 06:00 UTC la veille et 06:00 UTC le jour donné.

5 Précipitations totales tombées entre 06:00 UTC la jour donné et 06:00 UTC le lendemain.

Graphiques horaires